Map

Track Data

SID SEASON NUMBER BASIN SUBBASIN NAME ISO_TIME NATURE LAT LON WMO_WIND WMO_PRES WMO_AGENCY TRACK_TYPE DIST2LAND LANDFALL IFLAG USA_AGENCY USA_ATCF_ID USA_LAT USA_LON USA_RECORD USA_STATUS USA_WIND USA_PRES USA_SSHS USA_R34_NE USA_R34_SE USA_R34_SW USA_R34_NW USA_R50_NE USA_R50_SE USA_R50_SW USA_R50_NW USA_R64_NE USA_R64_SE USA_R64_SW USA_R64_NW USA_POCI USA_ROCI USA_RMW USA_EYE TOKYO_LAT TOKYO_LON TOKYO_GRADE TOKYO_WIND TOKYO_PRES TOKYO_R50_DIR TOKYO_R50_LONG TOKYO_R50_SHORT TOKYO_R30_DIR TOKYO_R30_LONG TOKYO_R30_SHORT TOKYO_LAND CMA_LAT CMA_LON CMA_CAT CMA_WIND CMA_PRES HKO_LAT HKO_LON HKO_CAT HKO_WIND HKO_PRES NEWDELHI_LAT NEWDELHI_LON NEWDELHI_GRADE NEWDELHI_WIND NEWDELHI_PRES NEWDELHI_CI NEWDELHI_DP NEWDELHI_POCI REUNION_LAT REUNION_LON REUNION_TYPE REUNION_WIND REUNION_PRES REUNION_TNUM REUNION_CI REUNION_RMW REUNION_R34_NE REUNION_R34_SE REUNION_R34_SW REUNION_R34_NW REUNION_R50_NE REUNION_R50_SE REUNION_R50_SW REUNION_R50_NW REUNION_R64_NE REUNION_R64_SE REUNION_R64_SW REUNION_R64_NW BOM_LAT BOM_LON BOM_TYPE BOM_WIND BOM_PRES BOM_TNUM BOM_CI BOM_RMW BOM_R34_NE BOM_R34_SE BOM_R34_SW BOM_R34_NW BOM_R50_NE BOM_R50_SE BOM_R50_SW BOM_R50_NW BOM_R64_NE BOM_R64_SE BOM_R64_SW BOM_R64_NW BOM_ROCI BOM_POCI BOM_EYE BOM_POS_METHOD BOM_PRES_METHOD NADI_LAT NADI_LON NADI_CAT NADI_WIND NADI_PRES WELLINGTON_LAT WELLINGTON_LON WELLINGTON_WIND WELLINGTON_PRES DS824_LAT DS824_LON DS824_STAGE DS824_WIND DS824_PRES TD9636_LAT TD9636_LON TD9636_STAGE TD9636_WIND TD9636_PRES TD9635_LAT TD9635_LON TD9635_WIND TD9635_PRES TD9635_ROCI NEUMANN_LAT NEUMANN_LON NEUMANN_CLASS NEUMANN_WIND NEUMANN_PRES MLC_LAT MLC_LON MLC_CLASS MLC_WIND MLC_PRES USA_GUST BOM_GUST BOM_GUST_PER REUNION_GUST REUNION_GUST_PER USA_SEAHGT USA_SEARAD_NE USA_SEARAD_SE USA_SEARAD_SW USA_SEARAD_NW STORM_SPEED STORM_DIR
1923149N16112 1923 32 WP MM NOT_NAMED 1923-05-28 22:00:00 NR 15.5000 111.700 main 293 293 __________O___ -1 15.5000 111.700 4 1 0
1923149N16112 1923 32 WP MM NOT_NAMED 1923-05-29 00:00:00 NR 15.4945 111.676 main 293 283 __________P___ -1 15.4945 111.676 4 1 260
1923149N16112 1923 32 WP MM NOT_NAMED 1923-05-29 03:00:00 NR 15.4884 111.630 main 283 283 __________P___ -1 15.4884 111.630 4 1 266
1923149N16112 1923 32 WP MM NOT_NAMED 1923-05-29 06:00:00 NR 15.4875 111.559 main 283 262 __________P___ -1 15.4875 111.559 4 2 272
1923149N16112 1923 32 WP MM NOT_NAMED 1923-05-29 09:00:00 NR 15.4951 111.448 main 262 262 __________P___ -1 15.4951 111.448 4 2 275
1923149N16112 1923 32 WP MM NOT_NAMED 1923-05-29 10:00:00 NR 15.5000 111.400 main 262 252 __________O___ -1 15.5000 111.400 4 3 277
1923149N16112 1923 32 WP MM NOT_NAMED 1923-05-29 12:00:00 NR 15.5137 111.285 main 252 232 __________P___ -1 15.5137 111.285 4 4 277
1923149N16112 1923 32 WP MM NOT_NAMED 1923-05-29 15:00:00 NR 15.5405 111.080 main 232 217 __________P___ -1 15.5405 111.080 4 4 278
1923149N16112 1923 32 WP MM NOT_NAMED 1923-05-29 18:00:00 NR 15.5693 110.862 main 217 198 __________P___ -1 15.5693 110.862 4 4 277
1923149N16112 1923 32 WP MM NOT_NAMED 1923-05-29 21:00:00 NR 15.5938 110.659 main 198 187 __________P___ -1 15.5938 110.659 4 4 277
1923149N16112 1923 32 WP MM NOT_NAMED 1923-05-29 22:00:00 NR 15.6000 110.600 main 187 177 __________O___ -1 15.6000 110.600 4 3 275
1923149N16112 1923 32 WP MM NOT_NAMED 1923-05-30 00:00:00 NR 15.6056 110.516 main 177 166 __________P___ -1 15.6056 110.516 4 2 273
1923149N16112 1923 32 WP MM NOT_NAMED 1923-05-30 03:00:00 NR 15.6078 110.415 main 166 156 __________P___ -1 15.6078 110.415 4 2 270
1923149N16112 1923 32 WP MM NOT_NAMED 1923-05-30 06:00:00 NR 15.6053 110.327 main 156 146 __________P___ -1 15.6053 110.327 4 2 268
1923149N16112 1923 32 WP MM NOT_NAMED 1923-05-30 09:00:00 NR 15.6012 110.235 main 146 146 __________P___ -1 15.6012 110.235 4 2 268
1923149N16112 1923 32 WP MM NOT_NAMED 1923-05-30 10:00:00 NR 15.6000 110.200 main 146 136 __________O___ -1 15.6000 110.200 4 2 266
1923149N16112 1923 32 WP MM NOT_NAMED 1923-05-30 12:00:00 NR 15.5947 110.124 main 136 126 __________P___ -1 15.5947 110.124 4 2 266
1923149N16112 1923 32 WP MM NOT_NAMED 1923-05-30 15:00:00 NR 15.5866 109.999 main 126 116 __________P___ -1 15.5866 109.999 4 3 268
1923149N16112 1923 32 WP MM NOT_NAMED 1923-05-30 18:00:00 NR 15.5840 109.850 main 116 96 __________P___ -1 15.5840 109.850 4 3 271
1923149N16112 1923 32 WP MM NOT_NAMED 1923-05-30 21:00:00 NR 15.5932 109.669 main 96 87 __________P___ -1 15.5932 109.669 4 4 274
1923149N16112 1923 32 WP MM NOT_NAMED 1923-05-30 22:00:00 NR 15.6000 109.600 main 87 69 __________O___ -1 15.6000 109.600 4 4 277
1923149N16112 1923 32 WP MM NOT_NAMED 1923-05-31 00:00:00 NR 15.6220 109.440 main 69 61 __________P___ -1 15.6220 109.440 4 5 279
1923149N16112 1923 32 WP MM NOT_NAMED 1923-05-31 03:00:00 NR 15.6676 109.168 main 61 39 __________P___ -1 15.6676 109.168 4 6 281
1923149N16112 1923 32 WP MM NOT_NAMED 1923-05-31 06:00:00 NR 15.7226 108.878 main 39 21 __________P___ -1 15.7226 108.878 4 6 282
1923149N16112 1923 32 WP MM NOT_NAMED 1923-05-31 09:00:00 NR 15.7809 108.591 main 21 10 __________P___ -1 15.7809 108.591 4 6 282
1923149N16112 1923 32 WP MM NOT_NAMED 1923-05-31 10:00:00 NR 15.8000 108.500 main 10 0 __________O___ -1 15.8000 108.500 4 5 282
1923149N16112 1923 32 WP MM NOT_NAMED 1923-05-31 12:00:00 NR 15.8367 108.328 main 0 0 __________P___ -1 15.8367 108.328 4 5 283
1923149N16112 1923 32 WP MM NOT_NAMED 1923-05-31 15:00:00 NR 15.8884 108.092 main 0 0 __________P___ -1 15.8884 108.092 4 4 283
1923149N16112 1923 32 WP MM NOT_NAMED 1923-05-31 18:00:00 NR 15.9373 107.874 main 0 0 __________P___ -1 15.9373 107.874 4 4 283
1923149N16112 1923 32 WP MM NOT_NAMED 1923-05-31 21:00:00 NR 15.9845 107.668 main 0 0 __________P___ -1 15.9845 107.668 4 4 283
1923149N16112 1923 32 WP MM NOT_NAMED 1923-05-31 22:00:00 NR 16.0000 107.600 main 0 __________O___ -1 16.0000 107.600 7 4 283

Digital Typhoon Data and Search

About IBTrACS Database

This database is a web-friendly format of International Best Track Archive for Climate Stewardship (IBTrACS), a global best track data archive curated by NOAA dating back to 1842.

Updated: 2021-12-03